Terminal Aerodrome Forecast
Issued by NWS Sioux Falls, SD

Home | Current Version | Previous Version | Graphics & Text | Print | Product List | Glossary On
Versions: 1 2 3 4 5 6 7 8 9 10 11 12 13 14 15 16 17 18
000
FTUS43 KFSD 232341
TAFHON
TAF
KHON 232341Z 2400/2424 15013KT P6SM BKN150
     FM240700 15013G21KT P6SM SCT060 OVC100
     FM241200 15015G23KT P6SM SCT015 OVC060
      TEMPO 2412/2414 P6SM -SHRA OVC025
     FM241400 16017G26KT 3SM -RA BR OVC015
     FM242000 16012G19KT P6SM BKN025=

USA.gov is the U.S. government's official web portal to all federal, state and local government web resources and services.